DONNELLS (DON)

Elevation: 4835' · STANISLAUS R basin · Operator: US Bureau of Reclamation

Provisional data, subject to change.
Query executed Thursday at 6:04:47   clock

Select a sensor type for a plot of data.
Note: Reservoir Flows are daily averages.

Earlier

Date STORAGE    RES CHG    OUTFLOW   
 AF   AF   CFS  
11/19/2014 31967 -258 189
11/20/2014 31744 -223 166
11/21/2014 31622 -122 111
11/22/2014 31619 -3 95
11/23/2014 31559 -60 139
11/24/2014 31481 -78 103
11/25/2014 31290 -191 170
11/26/2014 31132 -158 134
11/27/2014 31071 -61 87
11/28/2014 30900 -171 146
11/29/2014 30864 -36 86
11/30/2014 30810 -54 100
12/01/2014 30519 -291 236
12/02/2014 30092 -427 283
12/03/2014 30196 104 180
12/04/2014 30469 273 83
12/05/2014 30532 63 109
12/06/2014 30442 -90 152
12/07/2014 30003 -439 359
12/08/2014 29533 -470 303
12/09/2014 29029 -504 357
12/10/2014 28548 -481 302
12/11/2014 28077 -471 310
12/12/2014 27687 -390 298
12/13/2014 27346 -341 269
12/14/2014 26841 -505 318
12/15/2014 26291 -550 362
12/16/2014 25728 -563 360
12/17/2014 25282 -- 304
12/18/2014 -- -- --

Later | Latest

Warning! This data is preliminary and subject to revision.

Show DON Map | Plot DON Data | 1 Month DON Data | Real-Time DON Data | DON Info